createdAt,value
2022-07-30T00:01:21.954Z,98315.66
2022-07-30T00:03:49.562Z,98331.28
2022-07-30T00:06:18.639Z,98330.59
2022-07-30T00:08:45.609Z,98325.44
2022-07-30T00:11:13.068Z,98323.41
2022-07-30T00:13:40.469Z,98326.09
2022-07-30T00:16:07.887Z,98332.03
2022-07-30T00:18:35.307Z,98336.50
2022-07-30T00:21:02.930Z,98332.91
2022-07-30T00:23:30.405Z,98335.44
2022-07-30T00:25:57.979Z,98342.09
2022-07-30T00:28:25.400Z,98336.97
2022-07-30T00:30:56.181Z,98341.97
2022-07-30T00:33:23.867Z,98343.44
2022-07-30T00:35:51.252Z,98352.44
2022-07-30T00:38:18.627Z,98344.16
2022-07-30T00:40:49.276Z,98352.16
2022-07-30T00:43:17.541Z,98354.34
2022-07-30T00:45:45.070Z,98355.09
2022-07-30T00:48:14.046Z,98351.34
2022-07-30T00:50:41.798Z,98357.25
2022-07-30T00:53:12.300Z,98362.91
2022-07-30T00:55:39.434Z,98366.81
2022-07-30T00:58:06.509Z,98369.31
2022-07-30T01:00:33.502Z,98372.91
2022-07-30T01:03:00.511Z,98372.38
2022-07-30T01:05:27.501Z,98376.63
2022-07-30T01:07:55.283Z,98372.59
2022-07-30T01:10:22.613Z,98362.56
2022-07-30T01:12:52.601Z,98368.75
2022-07-30T01:15:20.365Z,98366.56
2022-07-30T01:17:52.882Z,98367.25
2022-07-30T01:21:05.739Z,98372.22
2022-07-30T01:23:39.862Z,98372.00
2022-07-30T01:26:14.970Z,98373.84
2022-07-30T01:28:54.990Z,98379.34
2022-07-30T01:31:26.081Z,98376.00
2022-07-30T01:33:54.992Z,98377.56
2022-07-30T01:36:23.489Z,98375.75
2022-07-30T01:38:52.239Z,98372.31
2022-07-30T01:41:20.493Z,98369.78
2022-07-30T01:43:47.945Z,98368.63
2022-07-30T01:46:17.815Z,98380.56
2022-07-30T01:48:48.149Z,98373.31
2022-07-30T01:51:18.392Z,98383.72
2022-07-30T01:53:51.632Z,98375.34
2022-07-30T01:56:24.507Z,98379.31
2022-07-30T01:58:54.663Z,98384.59
2022-07-30T02:01:25.102Z,98381.97
2022-07-30T02:04:01.220Z,98384.28
2022-07-30T02:06:42.873Z,98385.69
2022-07-30T02:09:20.126Z,98387.97
2022-07-30T02:12:07.068Z,98383.66
2022-07-30T02:14:48.447Z,98389.56
2022-07-30T02:17:30.159Z,98377.50
2022-07-30T02:20:05.636Z,98374.34
2022-07-30T02:22:41.072Z,98371.63
2022-07-30T02:25:10.645Z,98380.78
2022-07-30T02:27:42.134Z,98377.88
2022-07-30T02:30:11.337Z,98371.75
2022-07-30T02:32:42.891Z,98373.19
2022-07-30T02:35:18.813Z,98380.91
2022-07-30T02:37:50.803Z,98382.84
2022-07-30T02:40:20.476Z,98387.88
2022-07-30T02:42:50.659Z,98393.22
2022-07-30T02:45:22.753Z,98387.28
2022-07-30T02:47:58.938Z,98391.16
2022-07-30T02:50:28.188Z,98400.06
2022-07-30T02:52:58.501Z,98406.22
2022-07-30T02:55:28.897Z,98403.94
2022-07-30T02:57:57.732Z,98410.53
2022-07-30T03:00:29.511Z,98408.47
2022-07-30T03:02:57.756Z,98408.09
2022-07-30T03:05:26.845Z,98418.00
2022-07-30T03:07:59.762Z,98420.03
2022-07-30T03:10:27.838Z,98419.47
2022-07-30T03:12:56.339Z,98417.19
2022-07-30T03:15:23.703Z,98425.56
2022-07-30T03:17:55.548Z,98432.66
2022-07-30T03:20:30.141Z,98434.94
2022-07-30T03:22:59.972Z,98438.19
2022-07-30T03:25:31.086Z,98442.00
2022-07-30T03:28:04.070Z,98438.38
2022-07-30T03:30:33.613Z,98443.97
2022-07-30T03:33:01.278Z,98448.16
2022-07-30T03:35:31.275Z,98452.38
2022-07-30T03:38:00.059Z,98452.63
2022-07-30T03:40:27.814Z,98454.16
2022-07-30T03:42:55.958Z,98453.56
2022-07-30T03:45:25.510Z,98453.97
2022-07-30T03:47:58.250Z,98460.97
2022-07-30T03:50:26.174Z,98459.00
2022-07-30T03:52:53.729Z,98461.22
2022-07-30T03:55:22.213Z,98464.28
2022-07-30T03:57:49.345Z,98468.19
2022-07-30T04:00:18.297Z,98469.56
2022-07-30T04:02:50.079Z,98473.06
2022-07-30T04:05:17.287Z,98482.84
2022-07-30T04:07:46.549Z,98483.41
2022-07-30T04:10:16.330Z,98484.53
2022-07-30T04:13:12.553Z,98485.81
2022-07-30T04:16:38.236Z,98480.06
2022-07-30T04:18:51.229Z,98482.88
2022-07-30T04:21:20.789Z,98481.44
2022-07-30T04:24:02.295Z,98487.16
2022-07-30T04:26:35.495Z,98489.38
2022-07-30T04:29:06.944Z,98494.25
2022-07-30T04:31:40.287Z,98501.19
2022-07-30T04:34:55.994Z,98493.88
2022-07-30T04:37:55.157Z,98501.59
2022-07-30T04:40:22.300Z,98508.47
2022-07-30T04:42:49.530Z,98515.91
2022-07-30T04:45:16.937Z,98512.69
2022-07-30T04:47:53.745Z,98509.81
2022-07-30T04:50:46.346Z,98514.88
2022-07-30T04:53:19.617Z,98510.53
2022-07-30T04:55:57.311Z,98508.72
2022-07-30T04:58:28.698Z,98515.16
2022-07-30T05:00:57.911Z,98511.66
2022-07-30T05:03:30.422Z,98513.47
2022-07-30T05:05:59.113Z,98520.31
2022-07-30T05:08:31.278Z,98523.78
2022-07-30T05:11:00.901Z,98525.50
2022-07-30T05:13:34.510Z,98521.28
2022-07-30T05:16:05.805Z,98520.22
2022-07-30T05:18:32.965Z,98519.88
2022-07-30T05:21:00.163Z,98518.25
2022-07-30T05:23:42.099Z,98513.69
2022-07-30T05:26:50.463Z,98510.44
2022-07-30T05:29:20.008Z,98508.13
2022-07-30T05:32:09.720Z,98498.91
2022-07-30T05:34:37.384Z,98500.44
2022-07-30T05:37:05.009Z,98505.03
2022-07-30T05:39:32.467Z,98510.34
2022-07-30T05:42:19.905Z,98508.78
2022-07-30T05:44:49.201Z,98504.47
2022-07-30T05:47:16.198Z,98504.75
2022-07-30T05:49:44.747Z,98506.03
2022-07-30T05:52:15.111Z,98507.28
2022-07-30T05:54:42.618Z,98507.09
2022-07-30T05:57:36.799Z,98506.22
2022-07-30T06:00:07.659Z,98518.03
2022-07-30T06:02:43.864Z,98510.41
2022-07-30T06:05:37.034Z,98503.13
2022-07-30T06:08:04.410Z,98514.84
2022-07-30T06:10:32.286Z,98508.16
2022-07-30T06:12:59.669Z,98510.16
2022-07-30T06:15:27.141Z,98506.75
2022-07-30T06:17:59.567Z,98514.28
2022-07-30T06:20:55.692Z,98516.94
2022-07-30T06:23:31.055Z,98514.50
2022-07-30T06:26:09.381Z,98510.53
2022-07-30T06:28:38.550Z,98519.16
2022-07-30T06:31:15.210Z,98520.22
2022-07-30T06:33:43.227Z,98518.72
2022-07-30T06:36:14.046Z,98509.34
2022-07-30T06:39:07.955Z,98511.72
2022-07-30T06:42:00.819Z,98509.69
2022-07-30T06:44:38.365Z,98514.38
2022-07-30T06:47:28.940Z,98521.81
2022-07-30T06:49:57.688Z,98516.75
2022-07-30T06:52:26.309Z,98523.31
2022-07-30T06:54:54.674Z,98527.09
2022-07-30T06:57:38.751Z,98521.94
2022-07-30T07:00:17.770Z,98526.44
2022-07-30T07:02:46.174Z,98531.88
2022-07-30T07:05:14.790Z,98525.06
2022-07-30T07:07:58.188Z,98538.03
2022-07-30T07:10:28.486Z,98531.28
2022-07-30T07:13:16.009Z,98527.03
2022-07-30T07:15:43.333Z,98528.94
2022-07-30T07:18:15.406Z,98521.66
2022-07-30T07:20:49.789Z,98534.78
2022-07-30T07:23:19.599Z,98527.81
2022-07-30T07:25:48.827Z,98522.72
2022-07-30T07:28:16.760Z,98531.59
2022-07-30T07:30:45.073Z,98526.56
2022-07-30T07:33:15.616Z,98535.25
2022-07-30T07:35:49.704Z,98522.69
2022-07-30T07:38:25.783Z,98520.00
2022-07-30T07:40:54.442Z,98528.41
2022-07-30T07:43:22.023Z,98521.38
2022-07-30T07:45:49.971Z,98526.63
2022-07-30T07:48:19.258Z,98527.00
2022-07-30T07:50:51.708Z,98528.41
2022-07-30T07:53:30.691Z,98525.81
2022-07-30T07:55:58.740Z,98527.41
2022-07-30T07:58:27.166Z,98529.44
2022-07-30T08:00:58.346Z,98531.09
2022-07-30T08:03:45.352Z,98525.25
2022-07-30T08:06:32.360Z,98520.88
2022-07-30T08:09:43.859Z,98529.25
2022-07-30T08:12:27.642Z,98519.28
2022-07-30T08:15:13.165Z,98526.56
2022-07-30T08:18:03.066Z,98526.00
2022-07-30T08:20:39.843Z,98529.31
2022-07-30T08:23:08.303Z,98522.72
2022-07-30T08:25:35.425Z,98522.56
2022-07-30T08:28:03.366Z,98520.84
2022-07-30T08:30:31.502Z,98522.00
2022-07-30T08:32:59.501Z,98513.91
2022-07-30T08:35:26.565Z,98519.69
2022-07-30T08:37:53.668Z,98519.16
2022-07-30T08:40:26.516Z,98516.41
2022-07-30T08:43:05.476Z,98512.84
2022-07-30T08:45:35.280Z,98510.91
2022-07-30T08:48:29.598Z,98518.50
2022-07-30T08:50:57.189Z,98512.03
2022-07-30T08:53:35.523Z,98517.16
2022-07-30T08:56:04.775Z,98517.25
2022-07-30T08:58:36.960Z,98521.97
2022-07-30T09:01:05.998Z,98516.50
2022-07-30T09:03:34.082Z,98518.16
2022-07-30T09:06:04.247Z,98515.56
2022-07-30T09:08:32.347Z,98515.47
2022-07-30T09:11:00.380Z,98527.03
2022-07-30T09:13:34.452Z,98535.03
2022-07-30T09:16:03.369Z,98524.50
2022-07-30T09:18:40.780Z,98532.25
2022-07-30T09:21:24.431Z,98534.91
2022-07-30T09:24:13.599Z,98529.81
2022-07-30T09:27:07.145Z,98530.44
2022-07-30T09:29:37.460Z,98518.72
2022-07-30T09:32:23.422Z,98524.03
2022-07-30T09:35:29.248Z,98530.72
2022-07-30T09:38:12.265Z,98523.78
2022-07-30T09:41:04.906Z,98530.84
2022-07-30T09:43:44.545Z,98519.81
2022-07-30T09:46:20.340Z,98518.25
2022-07-30T09:48:49.403Z,98513.38
2022-07-30T09:51:18.481Z,98509.72
2022-07-30T09:53:56.993Z,98513.13
2022-07-30T09:56:30.046Z,98514.78
2022-07-30T09:58:58.999Z,98521.66
2022-07-30T10:01:49.856Z,98511.94
2022-07-30T10:04:34.646Z,98505.84
2022-07-30T10:07:25.203Z,98505.13
2022-07-30T10:10:00.539Z,98506.66
2022-07-30T10:12:29.006Z,98514.22
2022-07-30T10:14:59.173Z,98497.97
2022-07-30T10:17:28.422Z,98492.31
2022-07-30T10:20:17.980Z,98493.44
2022-07-30T10:22:46.691Z,98505.31
2022-07-30T10:25:35.296Z,98491.72
2022-07-30T10:28:10.425Z,98500.31
2022-07-30T10:30:38.259Z,98506.59
2022-07-30T10:33:08.854Z,98503.31
2022-07-30T10:35:56.711Z,98498.97
2022-07-30T10:38:28.220Z,98491.81
2022-07-30T10:41:22.324Z,98503.03
2022-07-30T10:44:33.304Z,98492.03
2022-07-30T10:47:07.775Z,98491.34
2022-07-30T10:49:40.996Z,98486.19
2022-07-30T10:52:10.227Z,98496.16
2022-07-30T10:54:42.859Z,98494.03
2022-07-30T10:57:15.221Z,98486.16
2022-07-30T10:59:57.565Z,98490.41
2022-07-30T11:02:28.964Z,98486.75
2022-07-30T11:05:17.657Z,98490.00
2022-07-30T11:07:47.457Z,98480.63
2022-07-30T11:10:35.280Z,98487.25
2022-07-30T11:13:08.692Z,98486.41
2022-07-30T11:15:52.753Z,98493.72
2022-07-30T11:18:20.580Z,98497.75
2022-07-30T11:21:13.898Z,98484.03
2022-07-30T11:23:41.464Z,98484.19
2022-07-30T11:26:14.498Z,98486.25
2022-07-30T11:28:43.102Z,98485.38
2022-07-30T11:31:36.970Z,98485.22
2022-07-30T11:34:19.466Z,98470.59
2022-07-30T11:37:19.076Z,98463.59
2022-07-30T11:39:56.034Z,98474.34
2022-07-30T11:42:34.833Z,98468.28
2022-07-30T11:45:29.742Z,98473.78
2022-07-30T11:48:00.110Z,98472.81
2022-07-30T11:50:30.210Z,98471.00
2022-07-30T11:53:09.522Z,98470.81
2022-07-30T11:55:39.185Z,98469.63
2022-07-30T11:58:23.982Z,98473.38
2022-07-30T12:00:51.852Z,98473.91
2022-07-30T12:03:21.370Z,98469.00
2022-07-30T12:05:51.049Z,98462.31
2022-07-30T12:08:33.545Z,98470.44
2022-07-30T12:11:03.629Z,98460.94
2022-07-30T12:13:45.441Z,98462.56
2022-07-30T12:16:17.507Z,98458.75
2022-07-30T12:18:45.790Z,98461.41
2022-07-30T12:21:16.292Z,98462.03
2022-07-30T12:24:04.618Z,98469.00
2022-07-30T12:26:34.200Z,98463.56
2022-07-30T12:29:04.864Z,98457.63
2022-07-30T12:31:33.828Z,98460.13
2022-07-30T12:34:01.364Z,98459.66
2022-07-30T12:36:35.032Z,98459.34
2022-07-30T12:39:04.811Z,98468.94
2022-07-30T12:41:45.721Z,98465.81
2022-07-30T12:44:40.072Z,98456.72
2022-07-30T12:47:19.201Z,98448.91
2022-07-30T12:49:49.884Z,98448.53
2022-07-30T12:52:31.240Z,98444.69
2022-07-30T12:55:08.907Z,98442.28
2022-07-30T12:57:56.730Z,98443.84
2022-07-30T13:00:26.667Z,98434.84
2022-07-30T13:02:54.147Z,98434.44
2022-07-30T13:05:21.925Z,98443.63
2022-07-30T13:07:59.803Z,98429.66
2022-07-30T13:10:31.302Z,98428.22
2022-07-30T13:12:59.532Z,98424.56
2022-07-30T13:15:26.937Z,98430.72
2022-07-30T13:17:54.341Z,98427.03
2022-07-30T13:20:22.199Z,98412.03
2022-07-30T13:22:49.568Z,98418.38
2022-07-30T13:25:18.041Z,98413.31
2022-07-30T13:27:45.389Z,98413.63
2022-07-30T13:30:13.088Z,98398.50
2022-07-30T13:32:40.453Z,98401.38
2022-07-30T13:35:08.287Z,98406.63
2022-07-30T13:37:37.729Z,98407.16
2022-07-30T13:40:06.542Z,98406.75
2022-07-30T13:42:34.011Z,98398.88
2022-07-30T13:45:01.403Z,98403.94
2022-07-30T13:47:29.163Z,98401.28
2022-07-30T13:49:56.502Z,98400.59
2022-07-30T13:52:23.911Z,98396.94
2022-07-30T13:54:53.638Z,98401.19
2022-07-30T13:57:21.089Z,98412.22
2022-07-30T13:59:48.498Z,98401.25
2022-07-30T14:02:15.872Z,98393.53
2022-07-30T14:04:43.236Z,98385.06
2022-07-30T14:07:10.598Z,98390.22
2022-07-30T14:09:45.869Z,98389.69
2022-07-30T14:12:15.411Z,98396.22
2022-07-30T14:14:42.766Z,98386.25
2022-07-30T14:17:10.166Z,98377.66
2022-07-30T14:19:37.556Z,98384.63
2022-07-30T14:22:05.026Z,98378.06
2022-07-30T14:24:32.409Z,98376.97
2022-07-30T14:27:00.325Z,98376.97
2022-07-30T14:29:28.220Z,98376.16
2022-07-30T14:31:56.040Z,98375.13
2022-07-30T14:34:23.603Z,98373.63
2022-07-30T14:36:51.004Z,98375.31
2022-07-30T14:39:18.459Z,98377.56
2022-07-30T14:41:46.178Z,98369.72
2022-07-30T14:44:13.795Z,98369.50
2022-07-30T14:46:51.620Z,98361.31
2022-07-30T14:49:23.934Z,98367.09
2022-07-30T14:51:52.158Z,98366.91
2022-07-30T14:54:20.118Z,98365.34
2022-07-30T14:56:47.559Z,98371.97
2022-07-30T14:59:15.048Z,98369.56
2022-07-30T15:01:43.805Z,98365.97
2022-07-30T15:04:11.609Z,98355.38
2022-07-30T15:06:40.755Z,98360.41
2022-07-30T15:09:08.931Z,98364.38
2022-07-30T15:12:04.387Z,98359.00
2022-07-30T15:14:24.763Z,98360.09
2022-07-30T15:16:52.262Z,98359.00
2022-07-30T15:19:19.309Z,98360.56
2022-07-30T15:21:46.326Z,98362.59
2022-07-30T15:24:13.347Z,98370.03
2022-07-30T15:26:40.499Z,98367.00
2022-07-30T15:29:11.641Z,98367.91
2022-07-30T15:31:40.240Z,98360.09
2022-07-30T15:34:10.899Z,98356.69
2022-07-30T15:36:41.752Z,98352.97
2022-07-30T15:39:08.772Z,98351.13
2022-07-30T15:41:37.205Z,98350.66
2022-07-30T15:44:04.641Z,98355.44
2022-07-30T15:46:31.614Z,98357.38
2022-07-30T15:48:58.950Z,98354.31
2022-07-30T15:51:26.003Z,98362.00
2022-07-30T15:53:52.986Z,98349.81
2022-07-30T15:56:20.687Z,98354.91
2022-07-30T15:58:47.783Z,98354.56
2022-07-30T16:01:14.889Z,98356.00
2022-07-30T16:03:42.332Z,98354.81
2022-07-30T16:06:09.713Z,98352.69
2022-07-30T16:08:37.123Z,98358.25
2022-07-30T16:11:04.713Z,98363.31
2022-07-30T16:13:32.451Z,98356.00
2022-07-30T16:15:59.797Z,98363.56
2022-07-30T16:18:27.262Z,98362.13
2022-07-30T16:20:58.510Z,98363.25
2022-07-30T16:23:26.173Z,98363.59
2022-07-30T16:25:53.658Z,98357.88
2022-07-30T16:28:21.045Z,98366.38
2022-07-30T16:30:51.378Z,98355.34
2022-07-30T16:33:19.940Z,98356.47
2022-07-30T16:35:49.151Z,98353.44
2022-07-30T16:38:19.831Z,98344.97
2022-07-30T16:40:47.576Z,98344.28
2022-07-30T16:43:16.184Z,98348.06
2022-07-30T16:45:44.088Z,98351.00
2022-07-30T16:48:12.011Z,98353.16
2022-07-30T16:50:40.728Z,98350.69
2022-07-30T16:53:13.288Z,98349.00
2022-07-30T16:55:45.014Z,98351.38
2022-07-30T16:58:12.779Z,98353.84
2022-07-30T17:00:40.575Z,98356.19
2022-07-30T17:03:08.597Z,98353.94
2022-07-30T17:05:37.792Z,98356.53
2022-07-30T17:08:13.627Z,98344.84
2022-07-30T17:10:41.573Z,98344.94
2022-07-30T17:13:09.193Z,98355.91
2022-07-30T17:15:36.585Z,98360.38
2022-07-30T17:18:04.171Z,98353.03
2022-07-30T17:20:32.050Z,98352.28
2022-07-30T17:22:59.464Z,98348.59
2022-07-30T17:25:27.488Z,98354.50
2022-07-30T17:27:56.274Z,98356.38
2022-07-30T17:30:24.341Z,98352.69
2022-07-30T17:32:52.040Z,98355.88
2022-07-30T17:35:20.053Z,98359.88
2022-07-30T17:37:47.455Z,98364.81
2022-07-30T17:40:30.333Z,98366.41
2022-07-30T17:43:04.006Z,98367.06
2022-07-30T17:45:32.522Z,98374.09
2022-07-30T17:48:01.540Z,98367.09
2022-07-30T17:50:33.082Z,98371.50
2022-07-30T17:53:03.461Z,98379.59
2022-07-30T17:55:34.803Z,98379.09
2022-07-30T17:58:03.912Z,98383.16
2022-07-30T18:00:31.479Z,98392.88
2022-07-30T18:02:59.114Z,98395.69
2022-07-30T18:05:26.731Z,98392.63
2022-07-30T18:07:54.124Z,98390.47
2022-07-30T18:10:21.662Z,98395.53
2022-07-30T18:12:49.491Z,98397.50
2022-07-30T18:15:18.081Z,98398.34
2022-07-30T18:17:46.055Z,98398.63
2022-07-30T18:20:14.113Z,98401.97
2022-07-30T18:22:42.053Z,98412.00
2022-07-30T18:25:19.125Z,98408.91
2022-07-30T18:27:47.663Z,98409.97
2022-07-30T18:30:15.472Z,98409.22
2022-07-30T18:32:43.479Z,98405.06
2022-07-30T18:35:14.423Z,98414.47
2022-07-30T18:37:43.249Z,98415.75
2022-07-30T18:40:12.530Z,98418.50
2022-07-30T18:42:40.070Z,98421.00
2022-07-30T18:45:08.764Z,98428.50
2022-07-30T18:47:36.208Z,98423.75
2022-07-30T18:50:03.895Z,98439.34
2022-07-30T18:52:31.268Z,98428.94
2022-07-30T18:54:58.722Z,98439.97
2022-07-30T18:57:26.256Z,98437.88
2022-07-30T18:59:53.706Z,98445.75
2022-07-30T19:02:21.265Z,98443.22
2022-07-30T19:04:48.679Z,98446.94
2022-07-30T19:07:16.020Z,98458.53
2022-07-30T19:09:43.557Z,98450.84
2022-07-30T19:12:11.029Z,98454.81
2022-07-30T19:14:38.819Z,98458.28
2022-07-30T19:17:13.666Z,98461.81
2022-07-30T19:19:41.646Z,98470.72
2022-07-30T19:22:09.172Z,98467.28
2022-07-30T19:24:36.550Z,98473.44
2022-07-30T19:27:04.666Z,98473.75
2022-07-30T19:29:32.156Z,98482.59
2022-07-30T19:32:00.080Z,98474.50
2022-07-30T19:34:27.645Z,98491.59
2022-07-30T19:36:55.053Z,98495.19
2022-07-30T19:39:22.384Z,98493.47
2022-07-30T19:41:51.095Z,98495.00
2022-07-30T19:44:18.975Z,98496.63
2022-07-30T19:46:48.751Z,98502.81
2022-07-30T19:49:19.848Z,98506.81
2022-07-30T19:52:10.041Z,98508.44
2022-07-30T19:54:36.934Z,98522.78
2022-07-30T19:57:04.844Z,98513.22
2022-07-30T19:59:59.338Z,98519.81
2022-07-30T20:02:22.465Z,98520.41
2022-07-30T20:04:50.124Z,98517.66
2022-07-30T20:07:17.584Z,98528.19
2022-07-30T20:09:44.839Z,98521.31
2022-07-30T20:12:15.529Z,98518.88
2022-07-30T20:14:44.125Z,98528.50
2022-07-30T20:17:11.110Z,98524.94
2022-07-30T20:19:38.192Z,98520.59
2022-07-30T20:22:14.751Z,98524.66
2022-07-30T20:24:42.466Z,98530.94
2022-07-30T20:27:36.560Z,98527.03
2022-07-30T20:29:56.720Z,98530.97
2022-07-30T20:32:24.630Z,98532.72
2022-07-30T20:34:52.377Z,98539.31
2022-07-30T20:37:21.736Z,98540.41
2022-07-30T20:39:50.469Z,98543.84
2022-07-30T20:42:18.521Z,98538.38
2022-07-30T20:44:49.375Z,98545.34
2022-07-30T20:47:34.801Z,98544.53
2022-07-30T20:50:10.776Z,98546.75
2022-07-30T20:52:46.817Z,98543.78
2022-07-30T20:55:22.058Z,98537.25
2022-07-30T20:58:01.967Z,98544.75
2022-07-30T21:00:40.811Z,98541.94
2022-07-30T21:05:56.490Z,98545.81
2022-07-30T21:08:25.557Z,98547.34
2022-07-30T21:10:53.738Z,98547.50
2022-07-30T21:13:22.951Z,98545.31
2022-07-30T21:16:01.764Z,98548.50
2022-07-30T21:18:31.488Z,98549.16
2022-07-30T21:21:00.651Z,98551.03
2022-07-30T21:23:27.881Z,98553.38
2022-07-30T21:28:41.916Z,98563.38
2022-07-30T21:31:09.800Z,98566.34
2022-07-30T21:33:37.869Z,98557.50
2022-07-30T21:36:10.502Z,98564.50
2022-07-30T21:38:42.611Z,98562.03
2022-07-30T21:41:15.247Z,98572.00
2022-07-30T21:43:44.269Z,98569.91
2022-07-30T21:46:12.381Z,98574.44
2022-07-30T21:48:39.976Z,98566.03
2022-07-30T21:51:08.519Z,98567.97
2022-07-30T21:53:44.884Z,98572.88
2022-07-30T21:56:14.997Z,98577.25
2022-07-30T21:58:43.506Z,98581.03
2022-07-30T22:01:17.132Z,98575.63
2022-07-30T22:04:03.274Z,98582.97
2022-07-30T22:06:39.982Z,98587.47
2022-07-30T22:09:19.345Z,98587.31
2022-07-30T22:12:01.439Z,98592.84
2022-07-30T22:14:29.198Z,98584.16
2022-07-30T22:16:56.918Z,98592.50
2022-07-30T22:19:25.777Z,98592.84
2022-07-30T22:21:53.816Z,98583.59
2022-07-30T22:24:29.990Z,98597.63
2022-07-30T22:26:59.886Z,98592.00
2022-07-30T22:29:34.106Z,98597.47
2022-07-30T22:32:04.106Z,98601.84
2022-07-30T22:34:32.465Z,98596.78
2022-07-30T22:36:59.441Z,98598.94
2022-07-30T22:39:32.249Z,98604.34
2022-07-30T22:42:13.866Z,98608.84
2022-07-30T22:44:42.062Z,98606.59
2022-07-30T22:47:18.958Z,98597.47
2022-07-30T22:50:00.360Z,98595.97
2022-07-30T22:52:28.532Z,98602.28
2022-07-30T22:54:59.656Z,98596.13
2022-07-30T22:57:37.774Z,98603.97
2022-07-30T23:00:14.251Z,98602.31
2022-07-30T23:02:56.292Z,98605.69
2022-07-30T23:05:24.052Z,98599.41
2022-07-30T23:07:51.683Z,98599.13
2022-07-30T23:10:20.332Z,98600.94
2022-07-30T23:12:26.730Z,98536.56
2022-07-30T23:12:31.574Z,98553.06
2022-07-30T23:12:51.416Z,98601.28
2022-07-30T23:15:19.813Z,98605.06
2022-07-30T23:17:47.682Z,98596.97
2022-07-30T23:20:23.157Z,98592.00
2022-07-30T23:22:50.760Z,98595.00
2022-07-30T23:25:18.189Z,98594.91
2022-07-30T23:27:46.797Z,98596.78
2022-07-30T23:30:14.417Z,98595.44
2022-07-30T23:32:41.761Z,98595.81
2022-07-30T23:35:10.608Z,98594.00
2022-07-30T23:37:48.960Z,98595.00
2022-07-30T23:40:18.615Z,98584.78
2022-07-30T23:42:47.013Z,98584.69
2022-07-30T23:45:14.139Z,98588.00
2022-07-30T23:47:52.121Z,98589.88
2022-07-30T23:50:29.504Z,98591.50
2022-07-30T23:52:56.478Z,98598.31
2022-07-30T23:55:23.705Z,98598.44
2022-07-30T23:57:50.747Z,98600.34
